Time;durP1;ratioP1;P1;durP2;ratioP2;P2;SDS_P1;SDS_P2;PMS_P1;PMS_P2;Temp;Humidity;BMP_temperature;BMP_pressure;BME280_temperature;BME280_humidity;BME280_pressure;Samples;Min_cycle;Max_cycle;Signal;HPM_P1;HPM_P2
2023/10/07 00:01:24;;;;;;;;;;;11.60;99.90;;;;;;7607425;19;20345;-78
2023/10/07 00:03:58;;;;;;;;;;;11.60;99.90;;;;;;7596594;19;19933;-78
2023/10/07 00:06:34;;;;;;;;;;;11.50;99.90;;;;;;7606591;19;19962;-79
2023/10/07 00:09:10;;;;;;;;;;;11.50;99.90;;;;;;7608216;19;19926;-79
2023/10/07 00:11:46;;;;;;;;;;;11.40;99.90;;;;;;7606637;19;22499;-79
2023/10/07 00:14:20;;;;;;;;;;;11.40;99.90;;;;;;7604954;19;19974;-79
2023/10/07 00:16:54;;;;;;;;;;;11.40;99.90;;;;;;7610218;19;19928;-78
2023/10/07 00:19:28;;;;;;;;;;;11.40;99.90;;;;;;7603420;19;19919;-80
2023/10/07 00:22:08;;;;;;;;;;;11.30;99.90;;;;;;7611672;19;20558;-79
2023/10/07 00:24:43;;;;;;;;;;;11.20;99.90;;;;;;7608985;19;19915;-80
2023/10/07 00:27:38;;;;;;;;;;;11.00;99.90;;;;;;7605649;19;19972;-81
2023/10/07 00:30:15;;;;;;;;;;;11.00;99.90;;;;;;7607990;19;19919;-79
2023/10/07 00:32:50;;;;;;;;;;;11.10;99.90;;;;;;7611175;19;19915;-80
2023/10/07 00:35:23;;;;;;;;;;;11.10;99.90;;;;;;7611205;19;20768;-79
2023/10/07 00:37:58;;;;;;;;;;;11.20;99.90;;;;;;7612323;19;19919;-79
2023/10/07 00:40:42;;;;;;;;;;;11.10;99.90;;;;;;7601448;19;19927;-80
2023/10/07 00:43:24;;;;;;;;;;;11.10;99.90;;;;;;7607338;19;19986;-82
2023/10/07 00:46:06;;;;;;;;;;;11.10;99.90;;;;;;7611962;19;20010;-80
2023/10/07 00:48:45;;;;;;;;;;;10.90;99.90;;;;;;7608462;19;20887;-78
2023/10/07 00:51:24;;;;;;;;;;;10.90;99.90;;;;;;7610360;19;19919;-79
2023/10/07 00:57:23;;;;;;;;;;;10.90;99.90;;;;;;7608386;19;19922;-79
2023/10/07 00:59:57;;;;;;;;;;;10.90;99.90;;;;;;7607411;19;19952;-79
2023/10/07 01:02:30;;;;;;;;;;;11.00;99.90;;;;;;7609647;19;20182;-81
2023/10/07 01:05:09;;;;;;;;;;;11.00;99.90;;;;;;7614597;19;19930;-80
2023/10/07 01:07:46;;;;;;;;;;;11.00;99.90;;;;;;7607382;19;20203;-80
2023/10/07 01:10:24;;;;;;;;;;;10.90;99.90;;;;;;7605457;19;19941;-80
2023/10/07 01:13:02;;;;;;;;;;;11.00;99.90;;;;;;7605445;19;20002;-80
2023/10/07 01:15:35;;;;;;;;;;;11.00;99.90;;;;;;7605069;19;19936;-80
2023/10/07 01:18:11;;;;;;;;;;;11.10;99.90;;;;;;7610400;19;19918;-80
2023/10/07 01:23:32;;;;;;;;;;;11.00;99.90;;;;;;7607750;19;20333;-80
2023/10/07 01:26:15;;;;;;;;;;;10.80;99.90;;;;;;7610184;19;20357;-81
2023/10/07 01:28:49;;;;;;;;;;;10.70;99.90;;;;;;7604263;19;19915;-81
2023/10/07 01:31:21;;;;;;;;;;;10.80;99.90;;;;;;7613620;19;20543;-80
2023/10/07 01:33:53;;;;;;;;;;;10.80;99.90;;;;;;7609400;19;19925;-80
2023/10/07 01:36:26;;;;;;;;;;;10.50;99.90;;;;;;7613383;19;20971;-81
2023/10/07 01:39:01;;;;;;;;;;;10.40;99.90;;;;;;7611785;19;20814;-81
2023/10/07 01:41:38;;;;;;;;;;;10.40;99.90;;;;;;7618276;19;20286;-80
2023/10/07 01:44:10;;;;;;;;;;;10.30;99.90;;;;;;7610585;19;19942;-80
2023/10/07 01:46:44;;;;;;;;;;;10.50;99.90;;;;;;7606205;19;19954;-80
2023/10/07 01:49:17;;;;;;;;;;;10.20;99.90;;;;;;7600237;19;19972;-80
2023/10/07 01:51:52;;;;;;;;;;;10.10;99.90;;;;;;7607635;19;21072;-80
2023/10/07 01:54:28;;;;;;;;;;;10.00;99.90;;;;;;7595678;19;19922;-80
2023/10/07 01:57:06;;;;;;;;;;;10.00;99.90;;;;;;7606379;19;19925;-80
2023/10/07 01:59:38;;;;;;;;;;;9.90;99.90;;;;;;7591512;19;19918;-80
2023/10/07 02:02:12;;;;;;;;;;;9.90;99.90;;;;;;7603264;19;19959;-80
2023/10/07 02:04:46;;;;;;;;;;;9.80;99.90;;;;;;7609023;19;19918;-80
2023/10/07 02:07:19;;;;;;;;;;;9.80;99.90;;;;;;7603539;19;19915;-81
2023/10/07 02:09:54;;;;;;;;;;;9.80;99.90;;;;;;7610984;19;20230;-80
2023/10/07 02:12:32;;;;;;;;;;;9.70;99.90;;;;;;7594716;19;19914;-80
2023/10/07 02:15:15;;;;;;;;;;;10.00;99.90;;;;;;7595994;19;20378;-80
2023/10/07 02:17:47;;;;;;;;;;;9.60;99.90;;;;;;7608072;19;19953;-79
2023/10/07 02:20:23;;;;;;;;;;;9.60;99.90;;;;;;7604706;19;20013;-79
2023/10/07 02:22:56;;;;;;;;;;;9.60;99.90;;;;;;7605055;19;19926;-79
2023/10/07 02:25:29;;;;;;;;;;;9.50;99.90;;;;;;7604306;19;19923;-80
2023/10/07 02:28:05;;;;;;;;;;;9.30;99.90;;;;;;7599551;19;20462;-79
2023/10/07 02:30:51;;;;;;;;;;;9.30;99.90;;;;;;7601838;19;20028;-80
2023/10/07 02:33:26;;;;;;;;;;;9.30;99.90;;;;;;7606371;19;19978;-78
2023/10/07 02:35:59;;;;;;;;;;;9.30;99.90;;;;;;7609107;19;20898;-79
2023/10/07 02:38:41;;;;;;;;;;;9.20;99.90;;;;;;7602352;19;19954;-79
2023/10/07 02:41:17;;;;;;;;;;;9.20;99.90;;;;;;7600424;19;20319;-79
2023/10/07 02:43:49;;;;;;;;;;;9.20;99.90;;;;;;7593938;19;20489;-81
2023/10/07 02:46:31;;;;;;;;;;;9.10;99.90;;;;;;7603830;19;20515;-80
2023/10/07 02:49:05;;;;;;;;;;;8.90;99.90;;;;;;7603616;19;19957;-80
2023/10/07 02:51:46;;;;;;;;;;;8.80;99.90;;;;;;7601873;19;19948;-80
2023/10/07 02:54:19;;;;;;;;;;;9.60;99.90;;;;;;7605934;19;20571;-81
2023/10/07 02:57:22;;;;;;;;;;;9.10;99.90;;;;;;7606391;19;19925;-81
2023/10/07 03:00:00;;;;;;;;;;;9.20;99.90;;;;;;7607295;19;19914;-79
2023/10/07 03:02:48;;;;;;;;;;;9.30;99.90;;;;;;7608396;19;20307;-79
2023/10/07 03:05:30;;;;;;;;;;;9.30;99.90;;;;;;7613123;19;19978;-80
2023/10/07 03:08:02;;;;;;;;;;;9.30;99.90;;;;;;7616826;19;19927;-79
2023/10/07 03:10:44;;;;;;;;;;;9.30;99.90;;;;;;7611987;19;20278;-79
2023/10/07 03:13:19;;;;;;;;;;;9.30;99.90;;;;;;7602715;19;20330;-79
2023/10/07 03:16:09;;;;;;;;;;;9.20;99.90;;;;;;7619093;19;19927;-80
2023/10/07 03:18:47;;;;;;;;;;;9.10;99.90;;;;;;7611362;19;19918;-79
2023/10/07 03:21:21;;;;;;;;;;;9.00;99.90;;;;;;7615250;19;20278;-80
2023/10/07 03:23:58;;;;;;;;;;;9.00;99.90;;;;;;7615150;19;19918;-80
2023/10/07 03:26:32;;;;;;;;;;;8.90;99.90;;;;;;7615514;19;19940;-80
2023/10/07 03:29:05;;;;;;;;;;;8.80;99.90;;;;;;7603940;19;19930;-80
2023/10/07 03:34:13;;;;;;;;;;;9.00;99.90;;;;;;7618176;19;19928;-79
2023/10/07 03:36:46;;;;;;;;;;;9.10;99.90;;;;;;7607465;19;20463;-80
2023/10/07 03:39:23;;;;;;;;;;;9.00;99.90;;;;;;7609096;19;19923;-78
2023/10/07 03:41:55;;;;;;;;;;;8.90;99.90;;;;;;7600514;19;19914;-79
2023/10/07 03:44:31;;;;;;;;;;;8.90;99.90;;;;;;7597063;19;19938;-78
2023/10/07 03:47:10;;;;;;;;;;;8.80;99.90;;;;;;7601843;19;19945;-78
2023/10/07 03:49:52;;;;;;;;;;;8.70;99.90;;;;;;7601150;19;21047;-79
2023/10/07 03:52:28;;;;;;;;;;;8.70;99.90;;;;;;7616969;19;20338;-80
2023/10/07 03:55:00;;;;;;;;;;;8.60;99.90;;;;;;7619710;19;19930;-79
2023/10/07 03:57:33;;;;;;;;;;;8.70;99.90;;;;;;7601949;19;19951;-80
2023/10/07 04:00:10;;;;;;;;;;;8.70;99.90;;;;;;7602272;19;19919;-79
2023/10/07 04:02:44;;;;;;;;;;;8.60;99.90;;;;;;7595077;19;19952;-80
2023/10/07 04:05:31;;;;;;;;;;;8.60;99.90;;;;;;7603108;19;19930;-79
2023/10/07 04:08:03;;;;;;;;;;;8.50;99.90;;;;;;7609481;19;19923;-79
2023/10/07 04:10:43;;;;;;;;;;;8.60;99.90;;;;;;7612145;19;19919;-78
2023/10/07 04:13:21;;;;;;;;;;;8.50;99.90;;;;;;7606234;19;19923;-79
2023/10/07 04:15:53;;;;;;;;;;;8.60;99.90;;;;;;7607251;19;20453;-79
2023/10/07 04:18:34;;;;;;;;;;;8.40;99.90;;;;;;7610438;19;19918;-80
2023/10/07 04:21:06;;;;;;;;;;;8.60;99.90;;;;;;7613257;19;19925;-80
2023/10/07 04:23:43;;;;;;;;;;;8.40;99.90;;;;;;7607278;19;19923;-79
2023/10/07 04:26:21;;;;;;;;;;;8.40;99.90;;;;;;7606864;19;20492;-79
2023/10/07 04:28:53;;;;;;;;;;;8.50;99.90;;;;;;7605744;19;19925;-79
2023/10/07 04:31:29;;;;;;;;;;;8.40;99.90;;;;;;7612508;19;20879;-79
2023/10/07 04:34:03;;;;;;;;;;;8.20;99.90;;;;;;7611147;19;19918;-79
2023/10/07 04:36:54;;;;;;;;;;;8.10;99.90;;;;;;7605393;19;19958;-80
2023/10/07 04:39:37;;;;;;;;;;;8.20;99.90;;;;;;7610375;19;19923;-80
2023/10/07 04:42:20;;;;;;;;;;;8.30;99.90;;;;;;7610363;19;19966;-79
2023/10/07 04:47:37;;;;;;;;;;;8.30;99.90;;;;;;7607720;19;19918;-79
2023/10/07 04:50:15;;;;;;;;;;;8.30;99.90;;;;;;7611002;19;19937;-80
2023/10/07 04:52:50;;;;;;;;;;;8.10;99.90;;;;;;7606157;19;19939;-80
2023/10/07 04:55:26;;;;;;;;;;;8.00;99.90;;;;;;7612501;19;19927;-79
2023/10/07 04:57:59;;;;;;;;;;;7.90;99.90;;;;;;7611284;19;19929;-79
2023/10/07 05:03:14;;;;;;;;;;;8.00;99.90;;;;;;7611276;19;20552;-79
2023/10/07 05:05:47;;;;;;;;;;;8.10;99.90;;;;;;7608326;19;20464;-79
2023/10/07 05:08:19;;;;;;;;;;;8.40;99.90;;;;;;7609541;19;19942;-80
2023/10/07 05:11:04;;;;;;;;;;;8.10;99.90;;;;;;7610613;19;19990;-79
2023/10/07 05:13:42;;;;;;;;;;;8.20;99.90;;;;;;7605048;19;19953;-79
2023/10/07 05:16:14;;;;;;;;;;;8.20;99.90;;;;;;7609723;19;19931;-80
2023/10/07 05:18:46;;;;;;;;;;;8.20;99.90;;;;;;7606289;19;19917;-79
2023/10/07 05:21:21;;;;;;;;;;;8.20;99.90;;;;;;7609000;19;19934;-79
2023/10/07 05:23:53;;;;;;;;;;;8.40;99.90;;;;;;7606499;19;20358;-79
2023/10/07 05:26:25;;;;;;;;;;;8.10;99.90;;;;;;7608158;19;19933;-79
2023/10/07 05:29:02;;;;;;;;;;;8.10;99.90;;;;;;7606492;19;19930;-79
2023/10/07 05:31:38;;;;;;;;;;;8.00;99.90;;;;;;7603958;19;19918;-79
2023/10/07 05:34:11;;;;;;;;;;;7.30;99.90;;;;;;7611779;19;19915;-79
2023/10/07 05:36:44;;;;;;;;;;;7.90;99.90;;;;;;7620685;19;20896;-80
2023/10/07 05:39:17;;;;;;;;;;;7.80;99.90;;;;;;7629334;19;19929;-79
2023/10/07 05:41:49;;;;;;;;;;;7.80;99.90;;;;;;7616134;19;19964;-79
2023/10/07 05:44:21;;;;;;;;;;;7.80;99.90;;;;;;7605885;19;19950;-79
2023/10/07 05:46:53;;;;;;;;;;;7.70;99.90;;;;;;7603795;19;19958;-78
2023/10/07 05:49:26;;;;;;;;;;;7.80;99.90;;;;;;7606233;19;19927;-77
2023/10/07 05:51:58;;;;;;;;;;;7.90;99.90;;;;;;7603676;19;19929;-78
2023/10/07 05:54:31;;;;;;;;;;;7.90;99.90;;;;;;7607231;19;19925;-78
2023/10/07 05:57:05;;;;;;;;;;;8.00;99.90;;;;;;7606196;19;19943;-79
2023/10/07 05:59:38;;;;;;;;;;;7.90;99.90;;;;;;7602019;19;19911;-80
2023/10/07 06:02:14;;;;;;;;;;;8.00;99.90;;;;;;7607870;19;19940;-80
2023/10/07 06:04:47;;;;;;;;;;;8.10;99.90;;;;;;7603979;19;19958;-80
2023/10/07 06:07:21;;;;;;;;;;;8.00;99.90;;;;;;7607339;19;20261;-81
2023/10/07 06:09:54;;;;;;;;;;;8.10;99.90;;;;;;7602391;19;19915;-80
2023/10/07 06:12:28;;;;;;;;;;;8.10;99.90;;;;;;7603170;19;20004;-80
2023/10/07 06:15:01;;;;;;;;;;;8.20;99.90;;;;;;7604556;19;19922;-79
2023/10/07 06:17:33;;;;;;;;;;;8.20;99.90;;;;;;7600864;19;20034;-80
2023/10/07 06:20:18;;;;;;;;;;;8.40;99.90;;;;;;7606819;19;19925;-79
2023/10/07 06:22:50;;;;;;;;;;;8.30;99.90;;;;;;7604078;19;20527;-79
2023/10/07 06:25:31;;;;;;;;;;;8.90;99.90;;;;;;7609029;19;19926;-80
2023/10/07 06:28:05;;;;;;;;;;;8.50;99.90;;;;;;7606916;19;20852;-80
2023/10/07 06:30:42;;;;;;;;;;;8.60;99.90;;;;;;7606989;19;19930;-80
2023/10/07 06:33:15;;;;;;;;;;;8.80;99.90;;;;;;7605290;19;19922;-80
2023/10/07 06:35:51;;;;;;;;;;;9.50;99.90;;;;;;7612297;19;19922;-80
2023/10/07 06:38:23;;;;;;;;;;;9.10;99.90;;;;;;7615364;19;19943;-81
2023/10/07 06:40:56;;;;;;;;;;;9.80;99.90;;;;;;7604386;19;19927;-79
2023/10/07 06:43:29;;;;;;;;;;;9.70;99.90;;;;;;7613309;19;20341;-80
2023/10/07 06:46:02;;;;;;;;;;;9.50;99.90;;;;;;7591467;19;19952;-80
2023/10/07 06:48:34;;;;;;;;;;;9.70;99.90;;;;;;7586535;19;20923;-80
2023/10/07 06:51:10;;;;;;;;;;;10.30;99.90;;;;;;7593737;19;19929;-79
2023/10/07 06:53:43;;;;;;;;;;;10.00;99.90;;;;;;7601424;19;19952;-80
2023/10/07 06:56:26;;;;;;;;;;;10.20;99.90;;;;;;7601895;19;19926;-79
2023/10/07 06:58:59;;;;;;;;;;;10.40;99.90;;;;;;7599548;19;19911;-79
2023/10/07 07:01:36;;;;;;;;;;;10.60;99.90;;;;;;7591033;19;19930;-81
2023/10/07 07:04:18;;;;;;;;;;;10.80;99.90;;;;;;7588689;19;19996;-80
2023/10/07 07:07:09;;;;;;;;;;;11.00;99.90;;;;;;7597010;19;20625;-78
2023/10/07 07:09:43;;;;;;;;;;;11.20;99.90;;;;;;7589103;19;19930;-80
2023/10/07 07:12:17;;;;;;;;;;;11.40;99.90;;;;;;7604195;19;19918;-80
2023/10/07 07:14:54;;;;;;;;;;;11.60;99.90;;;;;;7587755;19;19914;-78
2023/10/07 07:17:29;;;;;;;;;;;11.70;99.90;;;;;;7603564;19;19942;-79
2023/10/07 07:22:47;;;;;;;;;;;12.30;99.90;;;;;;7566093;19;19918;-79
2023/10/07 07:25:29;;;;;;;;;;;12.70;99.90;;;;;;7597648;19;19957;-79
2023/10/07 07:28:03;;;;;;;;;;;12.80;99.90;;;;;;7579194;19;19927;-79
2023/10/07 07:30:35;;;;;;;;;;;13.20;99.90;;;;;;7591527;19;19934;-78
2023/10/07 07:33:12;;;;;;;;;;;13.40;99.90;;;;;;7588308;19;19918;-79
2023/10/07 07:35:45;;;;;;;;;;;13.50;99.90;;;;;;7586406;19;19926;-80
2023/10/07 07:41:05;;;;;;;;;;;14.40;99.90;;;;;;7592422;19;19925;-79
2023/10/07 07:43:39;;;;;;;;;;;14.00;99.90;;;;;;7592817;19;20678;-79
2023/10/07 07:46:51;;;;;;;;;;;14.20;99.90;;;;;;7574592;19;19926;-80
2023/10/07 07:49:28;;;;;;;;;;;14.80;99.90;;;;;;7590611;19;19918;-80
2023/10/07 07:52:01;;;;;;;;;;;14.50;99.90;;;;;;7571564;19;19990;-79
2023/10/07 07:54:33;;;;;;;;;;;14.80;99.90;;;;;;7592353;19;19947;-79
2023/10/07 07:57:08;;;;;;;;;;;14.80;99.90;;;;;;7575244;19;19926;-79
2023/10/07 07:59:43;;;;;;;;;;;15.00;99.90;;;;;;7573495;19;19927;-79
2023/10/07 08:02:16;;;;;;;;;;;15.10;99.90;;;;;;7565976;19;20503;-79
2023/10/07 08:04:50;;;;;;;;;;;15.20;99.90;;;;;;7565395;19;19921;-79
2023/10/07 08:09:57;;;;;;;;;;;15.30;99.90;;;;;;7606276;19;19930;-80
2023/10/07 08:12:35;;;;;;;;;;;15.50;99.90;;;;;;7586609;19;19934;-79
2023/10/07 08:17:46;;;;;;;;;;;15.60;99.90;;;;;;7570912;19;19961;-80
2023/10/07 08:20:33;;;;;;;;;;;15.60;99.90;;;;;;7569849;19;19956;-80
2023/10/07 08:23:21;;;;;;;;;;;15.60;99.90;;;;;;7569362;19;20470;-80
2023/10/07 08:26:08;;;;;;;;;;;15.70;99.90;;;;;;7568135;19;19926;-80
2023/10/07 08:28:59;;;;;;;;;;;15.80;99.90;;;;;;7588782;19;20029;-79
2023/10/07 08:31:37;;;;;;;;;;;15.90;99.90;;;;;;7578157;19;20006;-79
2023/10/07 08:34:10;;;;;;;;;;;16.00;99.90;;;;;;7564113;19;20450;-80
2023/10/07 08:36:46;;;;;;;;;;;16.20;99.90;;;;;;7571017;19;20930;-79
2023/10/07 08:39:27;;;;;;;;;;;16.20;99.90;;;;;;7564135;19;19921;-78
2023/10/07 08:42:00;;;;;;;;;;;16.10;99.90;;;;;;7554787;19;21762;-80
2023/10/07 08:44:32;;;;;;;;;;;16.40;99.90;;;;;;7584489;19;19915;-80
2023/10/07 08:47:10;;;;;;;;;;;16.60;99.90;;;;;;7594459;19;19923;-80
2023/10/07 08:49:43;;;;;;;;;;;16.70;99.90;;;;;;7592738;19;20273;-80
2023/10/07 08:52:18;;;;;;;;;;;16.80;99.90;;;;;;7589894;19;19971;-79
2023/10/07 08:54:51;;;;;;;;;;;16.90;99.90;;;;;;7596486;19;19923;-80
2023/10/07 08:57:25;;;;;;;;;;;16.90;99.90;;;;;;7570984;19;20399;-79
2023/10/07 08:59:59;;;;;;;;;;;17.00;99.90;;;;;;7577358;19;19946;-79
2023/10/07 09:02:32;;;;;;;;;;;17.10;99.90;;;;;;7573630;19;19930;-80
2023/10/07 09:05:09;;;;;;;;;;;17.20;99.90;;;;;;7578809;19;19915;-80
2023/10/07 09:07:48;;;;;;;;;;;17.30;99.90;;;;;;7577038;19;19914;-80
2023/10/07 09:10:27;;;;;;;;;;;17.40;99.90;;;;;;7563987;19;19922;-79
2023/10/07 09:13:04;;;;;;;;;;;17.40;99.90;;;;;;7584274;19;19931;-79
2023/10/07 09:15:42;;;;;;;;;;;17.50;99.90;;;;;;7565927;19;19919;-78
2023/10/07 09:18:17;;;;;;;;;;;17.60;99.90;;;;;;7572865;19;20452;-79
2023/10/07 09:20:50;;;;;;;;;;;17.60;99.90;;;;;;7583899;19;19926;-79
2023/10/07 09:23:24;;;;;;;;;;;17.70;99.90;;;;;;7579339;19;20500;-78
2023/10/07 09:26:14;;;;;;;;;;;17.60;99.90;;;;;;7569522;19;19926;-78
2023/10/07 09:28:47;;;;;;;;;;;17.60;99.90;;;;;;7580439;19;19919;-77
2023/10/07 09:31:23;;;;;;;;;;;17.90;99.90;;;;;;7564573;19;19925;-75
2023/10/07 09:34:10;;;;;;;;;;;17.80;99.90;;;;;;7576300;19;19986;-76
2023/10/07 09:36:46;;;;;;;;;;;17.90;99.90;;;;;;7588308;19;19918;-78
2023/10/07 09:39:34;;;;;;;;;;;17.90;99.90;;;;;;7582457;19;20461;-77
2023/10/07 09:42:25;;;;;;;;;;;18.00;99.80;;;;;;7580499;19;19926;-77
2023/10/07 09:45:16;;;;;;;;;;;18.00;98.90;;;;;;7570192;19;19990;-76
2023/10/07 09:47:48;;;;;;;;;;;18.10;97.90;;;;;;7562609;19;20011;-76
2023/10/07 09:50:25;;;;;;;;;;;18.10;97.80;;;;;;7568050;19;20640;-77
2023/10/07 09:53:18;;;;;;;;;;;18.30;97.60;;;;;;7574241;19;19943;-77
2023/10/07 09:55:56;;;;;;;;;;;18.40;97.80;;;;;;7573762;19;19923;-76
2023/10/07 09:58:52;;;;;;;;;;;18.50;97.30;;;;;;7576417;19;19926;-76
2023/10/07 10:01:42;;;;;;;;;;;18.60;98.20;;;;;;7578026;19;19953;-77
2023/10/07 10:04:36;;;;;;;;;;;18.70;96.90;;;;;;7578405;19;19929;-77
2023/10/07 10:07:28;;;;;;;;;;;18.70;97.00;;;;;;7552639;19;19914;-78
2023/10/07 10:10:05;;;;;;;;;;;18.80;95.50;;;;;;7596059;19;19932;-77
2023/10/07 10:12:48;;;;;;;;;;;18.90;96.40;;;;;;7602657;19;19914;-77
2023/10/07 10:21:09;;;;;;;;;;;19.00;93.40;;;;;;7595347;19;19918;-77
2023/10/07 10:23:44;;;;;;;;;;;19.30;93.00;;;;;;7581152;19;21553;-78
2023/10/07 10:26:21;;;;;;;;;;;19.50;90.30;;;;;;7563219;19;19933;-77
2023/10/07 10:29:00;;;;;;;;;;;19.50;90.30;;;;;;7586341;19;20345;-75
2023/10/07 10:31:34;;;;;;;;;;;19.50;89.50;;;;;;7581649;19;19962;-76
2023/10/07 10:34:08;;;;;;;;;;;19.60;89.70;;;;;;7565323;19;19926;-77
2023/10/07 10:36:43;;;;;;;;;;;19.60;89.40;;;;;;7580830;19;20391;-76
2023/10/07 10:39:18;;;;;;;;;;;19.70;89.30;;;;;;7575837;19;20739;-76
2023/10/07 10:42:13;;;;;;;;;;;19.80;87.00;;;;;;7554439;19;20842;-76
2023/10/07 10:44:48;;;;;;;;;;;20.00;86.80;;;;;;7578608;19;19926;-76
2023/10/07 10:47:21;;;;;;;;;;;20.10;82.80;;;;;;7571883;19;19926;-76
2023/10/07 10:49:56;;;;;;;;;;;20.30;82.70;;;;;;7568369;19;19933;-76
2023/10/07 10:52:28;;;;;;;;;;;20.50;82.10;;;;;;7546869;19;19921;-76
2023/10/07 10:55:06;;;;;;;;;;;20.60;81.50;;;;;;7552953;19;19929;-74
2023/10/07 10:57:39;;;;;;;;;;;20.70;79.80;;;;;;7564027;19;19933;-76
2023/10/07 11:00:24;;;;;;;;;;;20.70;79.80;;;;;;7561729;19;19949;-76
2023/10/07 11:02:56;;;;;;;;;;;20.80;79.60;;;;;;7575099;19;19931;-77
2023/10/07 11:05:28;;;;;;;;;;;20.70;78.50;;;;;;7565881;19;20002;-77
2023/10/07 11:08:03;;;;;;;;;;;20.90;78.10;;;;;;7571396;19;21098;-76
2023/10/07 11:10:36;;;;;;;;;;;21.00;78.70;;;;;;7576655;19;19938;-76
2023/10/07 11:13:09;;;;;;;;;;;21.30;75.40;;;;;;7572069;19;20935;-76
2023/10/07 11:15:41;;;;;;;;;;;21.70;70.50;;;;;;7593586;19;19923;-76
2023/10/07 11:18:15;;;;;;;;;;;22.10;70.20;;;;;;7574313;19;20007;-76
2023/10/07 11:20:49;;;;;;;;;;;22.30;69.00;;;;;;7569184;19;20761;-76
2023/10/07 11:23:21;;;;;;;;;;;22.40;66.60;;;;;;7575741;19;19918;-76
2023/10/07 11:25:55;;;;;;;;;;;22.60;66.60;;;;;;7588480;19;19918;-77
2023/10/07 11:28:30;;;;;;;;;;;22.80;66.10;;;;;;7565841;19;20511;-78
2023/10/07 11:31:04;;;;;;;;;;;22.80;64.80;;;;;;7580040;19;20523;-77
2023/10/07 11:33:36;;;;;;;;;;;22.90;65.10;;;;;;7572935;19;19929;-78
2023/10/07 11:36:08;;;;;;;;;;;22.80;67.40;;;;;;7584421;19;19922;-78
2023/10/07 11:38:42;;;;;;;;;;;22.70;65.10;;;;;;7594031;19;19992;-77
2023/10/07 11:41:16;;;;;;;;;;;22.90;65.50;;;;;;7592842;19;20444;-78
2023/10/07 11:43:48;;;;;;;;;;;22.80;67.30;;;;;;7577841;19;19926;-78
2023/10/07 11:46:20;;;;;;;;;;;22.80;63.30;;;;;;7586943;19;21071;-78
2023/10/07 11:48:53;;;;;;;;;;;22.70;62.20;;;;;;7580559;19;19930;-78
2023/10/07 11:51:25;;;;;;;;;;;22.60;65.10;;;;;;7573533;19;20353;-78
2023/10/07 11:53:57;;;;;;;;;;;22.20;62.50;;;;;;7575503;19;20878;-77
2023/10/07 11:56:29;;;;;;;;;;;22.20;64.20;;;;;;7584724;19;19929;-76
2023/10/07 11:59:02;;;;;;;;;;;22.00;62.50;;;;;;7581279;19;19926;-76
2023/10/07 12:01:34;;;;;;;;;;;21.90;59.60;;;;;;7566737;19;19915;-78
2023/10/07 12:04:08;;;;;;;;;;;21.80;58.50;;;;;;7555598;19;19926;-79
2023/10/07 12:06:45;;;;;;;;;;;21.60;59.60;;;;;;7572749;19;20620;-77
2023/10/07 12:09:21;;;;;;;;;;;21.60;60.80;;;;;;7592387;19;19914;-78
2023/10/07 12:11:53;;;;;;;;;;;21.60;60.30;;;;;;7584760;19;20019;-77
2023/10/07 12:14:27;;;;;;;;;;;21.60;60.40;;;;;;7573568;19;19919;-76
2023/10/07 12:16:59;;;;;;;;;;;21.70;60.40;;;;;;7574671;19;19923;-75
2023/10/07 12:19:32;;;;;;;;;;;21.60;58.10;;;;;;7577539;19;19952;-76
2023/10/07 12:22:05;;;;;;;;;;;21.50;56.30;;;;;;7564306;19;20272;-78
2023/10/07 12:24:40;;;;;;;;;;;21.40;56.20;;;;;;7575657;19;19986;-78
2023/10/07 12:27:12;;;;;;;;;;;21.40;58.80;;;;;;7582667;19;19919;-77
2023/10/07 12:29:45;;;;;;;;;;;21.40;57.40;;;;;;7586115;19;19947;-78
2023/10/07 12:32:17;;;;;;;;;;;21.60;58.90;;;;;;7582854;19;20393;-77
2023/10/07 12:34:49;;;;;;;;;;;21.70;57.90;;;;;;7591519;19;19915;-77
2023/10/07 12:37:21;;;;;;;;;;;21.80;59.90;;;;;;7590366;19;19955;-76
2023/10/07 12:39:53;;;;;;;;;;;21.90;59.80;;;;;;7582379;19;19917;-77
2023/10/07 12:42:26;;;;;;;;;;;21.80;57.80;;;;;;7570671;19;19922;-77
2023/10/07 12:45:01;;;;;;;;;;;21.90;59.40;;;;;;7595070;19;19925;-76
2023/10/07 12:47:33;;;;;;;;;;;21.90;60.20;;;;;;7600482;19;19985;-76
2023/10/07 12:50:26;;;;;;;;;;;21.90;60.10;;;;;;7591157;19;19918;-77
2023/10/07 12:53:01;;;;;;;;;;;21.80;57.80;;;;;;7594251;19;19930;-77
2023/10/07 12:55:37;;;;;;;;;;;21.80;57.80;;;;;;7587897;19;19914;-77
2023/10/07 12:58:27;;;;;;;;;;;21.90;60.20;;;;;;7593972;19;19939;-77
2023/10/07 13:01:01;;;;;;;;;;;22.00;59.00;;;;;;7596682;19;19917;-77
2023/10/07 13:03:39;;;;;;;;;;;22.20;60.20;;;;;;7587669;19;19929;-77
2023/10/07 13:06:14;;;;;;;;;;;22.20;58.30;;;;;;7594990;19;20041;-76
2023/10/07 13:08:49;;;;;;;;;;;22.00;58.10;;;;;;7588037;19;19960;-77
2023/10/07 13:11:22;;;;;;;;;;;22.00;57.70;;;;;;7587946;19;19923;-78
2023/10/07 13:13:56;;;;;;;;;;;21.90;57.50;;;;;;7594721;19;19934;-76
2023/10/07 13:16:37;;;;;;;;;;;21.90;56.70;;;;;;7587771;19;19922;-76
2023/10/07 13:19:09;;;;;;;;;;;22.30;55.80;;;;;;7590989;19;20892;-77
2023/10/07 13:21:41;;;;;;;;;;;22.90;57.00;;;;;;7581590;19;20768;-77
2023/10/07 13:24:13;;;;;;;;;;;22.90;55.30;;;;;;7583681;19;19939;-76
2023/10/07 13:26:46;;;;;;;;;;;23.10;56.60;;;;;;7576184;19;19929;-77
2023/10/07 13:29:18;;;;;;;;;;;23.20;56.70;;;;;;7582824;19;21393;-77
2023/10/07 13:31:52;;;;;;;;;;;23.10;53.50;;;;;;7594349;19;19922;-77
2023/10/07 13:34:25;;;;;;;;;;;22.90;55.50;;;;;;7584601;19;19925;-77
2023/10/07 13:36:58;;;;;;;;;;;22.60;54.20;;;;;;7590426;19;19925;-77
2023/10/07 13:39:31;;;;;;;;;;;22.80;56.10;;;;;;7578539;19;19925;-77
2023/10/07 13:42:09;;;;;;;;;;;22.90;53.60;;;;;;7586118;19;19923;-77
2023/10/07 13:44:42;;;;;;;;;;;;;;;;;;7567635;19;19956;-76
2023/10/07 13:47:14;;;;;;;;;;;23.40;54.40;;;;;;7577112;19;20205;-78
2023/10/07 13:49:46;;;;;;;;;;;24.20;51.60;;;;;;7573516;19;20098;-77
2023/10/07 13:52:21;;;;;;;;;;;23.40;49.10;;;;;;7576871;19;19922;-77
2023/10/07 13:55:21;;;;;;;;;;;22.90;51.60;;;;;;7569643;19;19961;-77
2023/10/07 13:57:56;;;;;;;;;;;22.50;51.80;;;;;;7565663;19;19921;-77
2023/10/07 14:03:19;;;;;;;;;;;21.90;54.30;;;;;;7561978;19;20799;-77
2023/10/07 14:05:55;;;;;;;;;;;21.70;52.20;;;;;;7550094;19;19982;-77
2023/10/07 14:08:29;;;;;;;;;;;21.60;53.20;;;;;;7548659;19;19930;-78
2023/10/07 14:11:01;;;;;;;;;;;21.40;53.10;;;;;;7563856;19;20784;-77
2023/10/07 14:13:33;;;;;;;;;;;21.30;53.70;;;;;;7566220;19;19918;-78
2023/10/07 14:16:10;;;;;;;;;;;21.30;56.30;;;;;;7508368;19;19947;-77
2023/10/07 14:18:45;;;;;;;;;;;21.30;57.20;;;;;;7518751;19;19990;-78
2023/10/07 14:21:25;;;;;;;;;;;21.30;56.10;;;;;;7551991;19;19918;-79
2023/10/07 14:24:03;;;;;;;;;;;21.20;55.20;;;;;;7532724;19;19918;-77
2023/10/07 14:26:35;;;;;;;;;;;21.10;55.70;;;;;;7539674;19;19922;-76
2023/10/07 14:29:08;;;;;;;;;;;21.00;56.80;;;;;;6014548;19;10000180;-77
2023/10/07 14:31:44;;;;;;;;;;;20.90;57.70;;;;;;7515504;19;26297;-77
2023/10/07 14:34:16;;;;;;;;;;;20.80;57.00;;;;;;7549449;19;19968;-77
2023/10/07 14:36:50;;;;;;;;;;;20.70;57.00;;;;;;7543253;19;20353;-76
2023/10/07 14:39:22;;;;;;;;;;;20.70;58.20;;;;;;7549704;19;19922;-74
2023/10/07 14:42:14;;;;;;;;;;;20.60;59.50;;;;;;7530750;19;19922;-75
2023/10/07 14:44:47;;;;;;;;;;;20.60;60.10;;;;;;7564631;19;19923;-75
2023/10/07 14:47:21;;;;;;;;;;;20.40;61.50;;;;;;7554413;19;20984;-75
2023/10/07 14:49:54;;;;;;;;;;;20.40;61.60;;;;;;7542468;19;19956;-76
2023/10/07 14:52:27;;;;;;;;;;;20.30;61.20;;;;;;7545810;19;20474;-75
2023/10/07 14:55:00;;;;;;;;;;;20.30;62.30;;;;;;7555967;19;19944;-76
2023/10/07 14:57:32;;;;;;;;;;;20.10;62.50;;;;;;7565021;19;19939;-76
2023/10/07 15:00:10;;;;;;;;;;;20.10;63.30;;;;;;7569317;19;20419;-76
2023/10/07 15:02:49;;;;;;;;;;;20.10;63.50;;;;;;7590739;19;20926;-76
2023/10/07 15:05:25;;;;;;;;;;;20.00;63.50;;;;;;7570557;19;19923;-76
2023/10/07 15:07:57;;;;;;;;;;;19.80;63.70;;;;;;7556222;19;19927;-75
2023/10/07 15:10:29;;;;;;;;;;;19.80;63.10;;;;;;7550338;19;19968;-76
2023/10/07 15:13:02;;;;;;;;;;;19.90;62.90;;;;;;7545521;19;19930;-76
2023/10/07 15:15:37;;;;;;;;;;;19.80;63.50;;;;;;7577045;19;19964;-76
2023/10/07 15:18:12;;;;;;;;;;;19.70;63.60;;;;;;7562086;19;19947;-76
2023/10/07 15:20:45;;;;;;;;;;;19.70;62.80;;;;;;7565998;19;19915;-76
2023/10/07 15:23:17;;;;;;;;;;;19.60;64.50;;;;;;7574018;19;20105;-77
2023/10/07 15:25:49;;;;;;;;;;;19.60;63.60;;;;;;7567169;19;20451;-77
2023/10/07 15:28:22;;;;;;;;;;;19.50;63.90;;;;;;7565124;19;19919;-78
2023/10/07 15:30:54;;;;;;;;;;;19.60;62.40;;;;;;7573274;19;19942;-78
2023/10/07 15:33:26;;;;;;;;;;;19.60;62.90;;;;;;7575314;19;20590;-77
2023/10/07 15:35:59;;;;;;;;;;;19.50;63.50;;;;;;7565879;19;20884;-79
2023/10/07 15:38:32;;;;;;;;;;;19.40;63.40;;;;;;7559242;19;20439;-79
2023/10/07 15:41:07;;;;;;;;;;;19.30;63.50;;;;;;7569055;19;19915;-79
2023/10/07 15:43:41;;;;;;;;;;;19.30;63.90;;;;;;7573001;19;19927;-81
2023/10/07 15:46:13;;;;;;;;;;;19.30;63.20;;;;;;7567572;19;19918;-78